Scroll down
FLIGHT INFORMATION
Southwest Airlines

SWA882

At Arrival Gate

KIAD
 KMDW
DATE: 2021-04-30
GATE: B45
GATE DEPARTURE: 10:35
TAKEOFF: 10:44
DATE: 2021-04-30
GATE:  -
LANDING: 12:21
GATE ARRIVAL: 12:28
FLIGHT DATA
Crew: 
Speed: 
466 kts
Altitude: 
34,009 ft
Stage Length: 
500.3 nm
Block Time: 
1.9 hrs
Flight Time: 
1.6 hrs
Fuel Used: 
9,852 lb
Cleared Route: KIAD MCRAY IHD LEJOY AVERE KODIE KOZAR LIVER LEPEW SRPEN DJB BAGEL KMDW
TRACK DATA
50,000 ft 1,000 kts
AIRCRAFT INFO AND CUMULATIVE STATS
Aircraft Type: 
B737BW
Registration: 
SELCAL: 
MSN/LN: 
32753 / 1222
Operator: 
Total Flights: 
2
Total Block Time: 
3.3 hrs
Total Flight Time: 
2.9 hrs
Total Fuel Used: 
17,146 lb
DATALINK LOG | Newest first | Current as of: 2022-08-18 17:18:34
LABEL SEQUENCE CONTENT Dn/Up
QD064212:28 9.9▼ Dn
QC560212:21▼ Dn
2U2723KMDW 291353Z 35010KT 8SM OVC008 10/07 A2983 RMK AO2 RAB22E41 SLP104 P0000 T01000072▲ Up
2S0214KMDW▼ Dn
QB145210:44▼ Dn
QA054410:35 19.8▼ Dn
A35220CLEARED TO KMDW VIA MCRAY2 MCRAY J518 IHD J518 LIVER J518 DJB BAGEL PANGG3. SQUAWK 2506.▲ Up
Q05109[LINK ACK]▲ Up
Q05109[LINK TEST]▼ Dn


AIRCRAFT HISTORY
FLIGHT DATE FLIGHT NO. ORIGIN DESTINATION CLEARED ROUTE BLOCK TIME FLIGHT TIME FUEL USED PILOT
2021-04-30SWA882KIAD KMDW KIAD MCRAY IHD LEJOY AVERE KODIE KOZAR LIVER LEPEW SRPEN DJB BAGEL KMDW1.9 hrs1.6 hrs9,852 lbMike Dryden
2021-03-31SWA331KBOS KIAD KBOS BLZZR BAF KIAD1.5 hrs1.3 hrs7,294 lbJames W.